sensor_id;sensor_type;location;lat;lon;timestamp;P1;durP1;ratioP1;P2;durP2;ratioP2
15633;SDS011;14654;48.898;8.308;2023-11-19T00:02:14;1.60;;;1.50;;
15633;SDS011;14654;48.898;8.308;2023-11-19T00:04:40;2.13;;;1.50;;
15633;SDS011;14654;48.898;8.308;2023-11-19T00:07:05;1.30;;;1.20;;
15633;SDS011;14654;48.898;8.308;2023-11-19T00:09:32;1.40;;;1.30;;
15633;SDS011;14654;48.898;8.308;2023-11-19T00:11:58;1.20;;;1.10;;
15633;SDS011;14654;48.898;8.308;2023-11-19T00:14:25;1.97;;;1.17;;
15633;SDS011;14654;48.898;8.308;2023-11-19T00:16:51;1.50;;;1.23;;
15633;SDS011;14654;48.898;8.308;2023-11-19T00:19:16;1.57;;;1.07;;
15633;SDS011;14654;48.898;8.308;2023-11-19T00:21:44;1.40;;;1.20;;
15633;SDS011;14654;48.898;8.308;2023-11-19T00:24:10;1.40;;;1.30;;
15633;SDS011;14654;48.898;8.308;2023-11-19T00:26:37;1.20;;;1.10;;
15633;SDS011;14654;48.898;8.308;2023-11-19T00:29:03;1.93;;;1.33;;
15633;SDS011;14654;48.898;8.308;2023-11-19T00:31:29;1.60;;;1.43;;
15633;SDS011;14654;48.898;8.308;2023-11-19T00:33:54;1.60;;;1.37;;
15633;SDS011;14654;48.898;8.308;2023-11-19T00:36:19;2.13;;;1.47;;
15633;SDS011;14654;48.898;8.308;2023-11-19T00:38:45;1.40;;;0.93;;
15633;SDS011;14654;48.898;8.308;2023-11-19T00:41:10;1.03;;;0.97;;
15633;SDS011;14654;48.898;8.308;2023-11-19T00:43:36;1.20;;;1.07;;
15633;SDS011;14654;48.898;8.308;2023-11-19T00:46:01;1.20;;;1.10;;
15633;SDS011;14654;48.898;8.308;2023-11-19T00:48:28;1.97;;;1.27;;
15633;SDS011;14654;48.898;8.308;2023-11-19T00:50:53;1.10;;;0.90;;
15633;SDS011;14654;48.898;8.308;2023-11-19T00:53:19;1.20;;;1.00;;
15633;SDS011;14654;48.898;8.308;2023-11-19T00:55:44;0.90;;;0.80;;
15633;SDS011;14654;48.898;8.308;2023-11-19T00:58:09;1.33;;;1.00;;
15633;SDS011;14654;48.898;8.308;2023-11-19T01:00:35;1.50;;;1.07;;
15633;SDS011;14654;48.898;8.308;2023-11-19T01:03:00;1.17;;;0.87;;
15633;SDS011;14654;48.898;8.308;2023-11-19T01:05:25;1.60;;;0.73;;
15633;SDS011;14654;48.898;8.308;2023-11-19T01:07:51;1.60;;;0.70;;
15633;SDS011;14654;48.898;8.308;2023-11-19T01:10:18;0.93;;;0.70;;
15633;SDS011;14654;48.898;8.308;2023-11-19T01:12:44;1.10;;;0.90;;
15633;SDS011;14654;48.898;8.308;2023-11-19T01:15:09;0.70;;;0.70;;
15633;SDS011;14654;48.898;8.308;2023-11-19T01:17:36;1.30;;;0.90;;
15633;SDS011;14654;48.898;8.308;2023-11-19T01:20:03;0.73;;;0.73;;
15633;SDS011;14654;48.898;8.308;2023-11-19T01:22:31;0.80;;;0.80;;
15633;SDS011;14654;48.898;8.308;2023-11-19T01:24:56;0.80;;;0.60;;
15633;SDS011;14654;48.898;8.308;2023-11-19T01:27:23;0.77;;;0.77;;
15633;SDS011;14654;48.898;8.308;2023-11-19T01:29:48;1.10;;;1.00;;
15633;SDS011;14654;48.898;8.308;2023-11-19T01:32:14;1.43;;;0.80;;
15633;SDS011;14654;48.898;8.308;2023-11-19T01:34:40;1.00;;;0.90;;
15633;SDS011;14654;48.898;8.308;2023-11-19T01:37:06;0.90;;;0.90;;
15633;SDS011;14654;48.898;8.308;2023-11-19T01:39:31;0.90;;;0.90;;
15633;SDS011;14654;48.898;8.308;2023-11-19T01:41:56;1.90;;;1.00;;
15633;SDS011;14654;48.898;8.308;2023-11-19T01:44:21;1.00;;;0.90;;
15633;SDS011;14654;48.898;8.308;2023-11-19T01:46:47;1.43;;;1.10;;
15633;SDS011;14654;48.898;8.308;2023-11-19T01:49:17;1.20;;;0.90;;
15633;SDS011;14654;48.898;8.308;2023-11-19T01:51:44;1.20;;;1.10;;
15633;SDS011;14654;48.898;8.308;2023-11-19T01:54:12;1.07;;;0.97;;
15633;SDS011;14654;48.898;8.308;2023-11-19T01:56:38;2.03;;;1.00;;
15633;SDS011;14654;48.898;8.308;2023-11-19T01:59:08;0.83;;;0.83;;
15633;SDS011;14654;48.898;8.308;2023-11-19T02:01:36;2.13;;;1.23;;
15633;SDS011;14654;48.898;8.308;2023-11-19T02:04:05;2.90;;;1.13;;
15633;SDS011;14654;48.898;8.308;2023-11-19T02:06:32;1.30;;;1.20;;
15633;SDS011;14654;48.898;8.308;2023-11-19T02:08:59;1.30;;;1.20;;
15633;SDS011;14654;48.898;8.308;2023-11-19T02:11:25;2.00;;;1.00;;
15633;SDS011;14654;48.898;8.308;2023-11-19T02:13:54;1.53;;;1.40;;
15633;SDS011;14654;48.898;8.308;2023-11-19T02:16:20;1.77;;;1.43;;
15633;SDS011;14654;48.898;8.308;2023-11-19T02:18:46;1.77;;;1.40;;
15633;SDS011;14654;48.898;8.308;2023-11-19T02:21:11;1.73;;;1.50;;
15633;SDS011;14654;48.898;8.308;2023-11-19T02:23:36;1.57;;;1.40;;
15633;SDS011;14654;48.898;8.308;2023-11-19T02:28:53;1.70;;;1.30;;
15633;SDS011;14654;48.898;8.308;2023-11-19T02:31:19;2.10;;;1.50;;
15633;SDS011;14654;48.898;8.308;2023-11-19T02:33:45;1.70;;;1.50;;
15633;SDS011;14654;48.898;8.308;2023-11-19T02:36:10;1.73;;;1.63;;
15633;SDS011;14654;48.898;8.308;2023-11-19T02:38:36;1.70;;;1.37;;
15633;SDS011;14654;48.898;8.308;2023-11-19T02:41:04;2.60;;;1.90;;
15633;SDS011;14654;48.898;8.308;2023-11-19T02:43:31;2.07;;;1.70;;
15633;SDS011;14654;48.898;8.308;2023-11-19T02:45:59;2.40;;;2.00;;
15633;SDS011;14654;48.898;8.308;2023-11-19T02:48:27;2.03;;;1.77;;
15633;SDS011;14654;48.898;8.308;2023-11-19T02:50:53;1.93;;;1.50;;
15633;SDS011;14654;48.898;8.308;2023-11-19T02:53:18;2.10;;;1.90;;
15633;SDS011;14654;48.898;8.308;2023-11-19T02:55:46;1.93;;;1.83;;
15633;SDS011;14654;48.898;8.308;2023-11-19T02:58:14;2.17;;;1.80;;
15633;SDS011;14654;48.898;8.308;2023-11-19T03:00:48;2.83;;;2.00;;
15633;SDS011;14654;48.898;8.308;2023-11-19T03:03:22;2.03;;;1.70;;
15633;SDS011;14654;48.898;8.308;2023-11-19T03:05:50;2.10;;;1.90;;
15633;SDS011;14654;48.898;8.308;2023-11-19T03:08:16;1.90;;;1.60;;
15633;SDS011;14654;48.898;8.308;2023-11-19T03:10:42;2.00;;;1.80;;
15633;SDS011;14654;48.898;8.308;2023-11-19T03:13:11;2.83;;;2.07;;
15633;SDS011;14654;48.898;8.308;2023-11-19T03:15:39;1.80;;;1.70;;
15633;SDS011;14654;48.898;8.308;2023-11-19T03:18:04;1.80;;;1.70;;
15633;SDS011;14654;48.898;8.308;2023-11-19T03:20:30;2.70;;;1.67;;
15633;SDS011;14654;48.898;8.308;2023-11-19T03:22:55;1.40;;;1.30;;
15633;SDS011;14654;48.898;8.308;2023-11-19T03:25:24;1.70;;;1.47;;
15633;SDS011;14654;48.898;8.308;2023-11-19T03:27:50;1.50;;;1.40;;
15633;SDS011;14654;48.898;8.308;2023-11-19T03:30:16;2.50;;;1.80;;
15633;SDS011;14654;48.898;8.308;2023-11-19T03:32:42;1.80;;;1.70;;
15633;SDS011;14654;48.898;8.308;2023-11-19T03:35:07;1.53;;;1.43;;
15633;SDS011;14654;48.898;8.308;2023-11-19T03:37:34;1.93;;;1.67;;
15633;SDS011;14654;48.898;8.308;2023-11-19T03:39:59;1.40;;;1.30;;
15633;SDS011;14654;48.898;8.308;2023-11-19T03:42:28;1.43;;;1.33;;
15633;SDS011;14654;48.898;8.308;2023-11-19T03:44:54;1.60;;;1.50;;
15633;SDS011;14654;48.898;8.308;2023-11-19T03:47:20;1.53;;;1.43;;
15633;SDS011;14654;48.898;8.308;2023-11-19T03:49:48;2.13;;;1.40;;
15633;SDS011;14654;48.898;8.308;2023-11-19T03:52:14;1.43;;;1.33;;
15633;SDS011;14654;48.898;8.308;2023-11-19T03:54:40;1.50;;;1.40;;
15633;SDS011;14654;48.898;8.308;2023-11-19T03:57:05;1.63;;;1.07;;
15633;SDS011;14654;48.898;8.308;2023-11-19T03:59:31;1.50;;;1.40;;
15633;SDS011;14654;48.898;8.308;2023-11-19T04:01:56;1.93;;;1.40;;
15633;SDS011;14654;48.898;8.308;2023-11-19T04:04:21;1.43;;;1.20;;
15633;SDS011;14654;48.898;8.308;2023-11-19T04:06:47;1.40;;;1.30;;
15633;SDS011;14654;48.898;8.308;2023-11-19T04:09:13;2.03;;;1.00;;
15633;SDS011;14654;48.898;8.308;2023-11-19T04:11:38;1.40;;;1.30;;
15633;SDS011;14654;48.898;8.308;2023-11-19T04:14:04;1.30;;;1.20;;
15633;SDS011;14654;48.898;8.308;2023-11-19T04:16:30;1.77;;;1.10;;
15633;SDS011;14654;48.898;8.308;2023-11-19T04:18:55;1.43;;;1.33;;
15633;SDS011;14654;48.898;8.308;2023-11-19T04:21:21;1.30;;;0.97;;
15633;SDS011;14654;48.898;8.308;2023-11-19T04:23:47;1.17;;;1.07;;
15633;SDS011;14654;48.898;8.308;2023-11-19T04:26:13;1.47;;;1.20;;
15633;SDS011;14654;48.898;8.308;2023-11-19T04:28:38;2.40;;;1.00;;
15633;SDS011;14654;48.898;8.308;2023-11-19T04:31:04;0.90;;;0.90;;
15633;SDS011;14654;48.898;8.308;2023-11-19T04:33:30;1.30;;;1.03;;
15633;SDS011;14654;48.898;8.308;2023-11-19T04:35:56;1.10;;;1.00;;
15633;SDS011;14654;48.898;8.308;2023-11-19T04:38:21;1.10;;;1.00;;
15633;SDS011;14654;48.898;8.308;2023-11-19T04:40:46;1.10;;;0.97;;
15633;SDS011;14654;48.898;8.308;2023-11-19T04:43:12;1.47;;;0.80;;
15633;SDS011;14654;48.898;8.308;2023-11-19T04:45:38;0.97;;;0.87;;
15633;SDS011;14654;48.898;8.308;2023-11-19T04:48:04;0.80;;;0.80;;
15633;SDS011;14654;48.898;8.308;2023-11-19T04:50:30;1.00;;;0.90;;
15633;SDS011;14654;48.898;8.308;2023-11-19T04:52:55;1.00;;;0.90;;
15633;SDS011;14654;48.898;8.308;2023-11-19T04:55:21;0.73;;;0.60;;
15633;SDS011;14654;48.898;8.308;2023-11-19T04:57:47;1.07;;;0.73;;
15633;SDS011;14654;48.898;8.308;2023-11-19T05:00:12;0.60;;;0.50;;
15633;SDS011;14654;48.898;8.308;2023-11-19T05:02:38;1.00;;;0.70;;
15633;SDS011;14654;48.898;8.308;2023-11-19T05:05:04;0.73;;;0.73;;
15633;SDS011;14654;48.898;8.308;2023-11-19T05:07:30;0.70;;;0.60;;
15633;SDS011;14654;48.898;8.308;2023-11-19T05:09:55;0.60;;;0.60;;
15633;SDS011;14654;48.898;8.308;2023-11-19T05:12:21;0.80;;;0.60;;
15633;SDS011;14654;48.898;8.308;2023-11-19T05:14:46;1.20;;;0.70;;
15633;SDS011;14654;48.898;8.308;2023-11-19T05:17:15;5.23;;;4.83;;
15633;SDS011;14654;48.898;8.308;2023-11-19T05:19:40;4.27;;;3.13;;
15633;SDS011;14654;48.898;8.308;2023-11-19T05:22:06;3.90;;;3.70;;
15633;SDS011;14654;48.898;8.308;2023-11-19T05:24:32;3.27;;;3.07;;
15633;SDS011;14654;48.898;8.308;2023-11-19T05:26:58;3.40;;;3.20;;
15633;SDS011;14654;48.898;8.308;2023-11-19T05:29:23;4.53;;;3.83;;
15633;SDS011;14654;48.898;8.308;2023-11-19T05:31:49;2.10;;;1.90;;
15633;SDS011;14654;48.898;8.308;2023-11-19T05:34:14;1.77;;;1.67;;
15633;SDS011;14654;48.898;8.308;2023-11-19T05:36:40;2.80;;;2.60;;
15633;SDS011;14654;48.898;8.308;2023-11-19T05:39:05;3.50;;;3.30;;
15633;SDS011;14654;48.898;8.308;2023-11-19T05:41:30;2.30;;;2.10;;
15633;SDS011;14654;48.898;8.308;2023-11-19T05:43:56;2.10;;;1.90;;
15633;SDS011;14654;48.898;8.308;2023-11-19T05:46:21;1.93;;;1.70;;
15633;SDS011;14654;48.898;8.308;2023-11-19T05:48:47;1.60;;;1.50;;
15633;SDS011;14654;48.898;8.308;2023-11-19T05:51:13;0.80;;;0.70;;
15633;SDS011;14654;48.898;8.308;2023-11-19T05:53:40;0.57;;;0.57;;
15633;SDS011;14654;48.898;8.308;2023-11-19T05:56:05;0.80;;;0.50;;
15633;SDS011;14654;48.898;8.308;2023-11-19T05:58:34;1.57;;;0.70;;
15633;SDS011;14654;48.898;8.308;2023-11-19T06:01:00;0.50;;;0.50;;
15633;SDS011;14654;48.898;8.308;2023-11-19T06:03:27;1.23;;;0.60;;
15633;SDS011;14654;48.898;8.308;2023-11-19T06:05:53;2.67;;;0.60;;
15633;SDS011;14654;48.898;8.308;2023-11-19T06:08:19;0.97;;;0.60;;
15633;SDS011;14654;48.898;8.308;2023-11-19T06:10:45;0.70;;;0.53;;
15633;SDS011;14654;48.898;8.308;2023-11-19T06:13:11;0.77;;;0.50;;
15633;SDS011;14654;48.898;8.308;2023-11-19T06:15:40;0.80;;;0.63;;
15633;SDS011;14654;48.898;8.308;2023-11-19T06:18:06;0.47;;;0.40;;
15633;SDS011;14654;48.898;8.308;2023-11-19T06:20:32;3.17;;;0.70;;
15633;SDS011;14654;48.898;8.308;2023-11-19T06:22:58;1.00;;;0.67;;
15633;SDS011;14654;48.898;8.308;2023-11-19T06:25:23;1.83;;;0.40;;
15633;SDS011;14654;48.898;8.308;2023-11-19T06:27:49;1.60;;;0.70;;
15633;SDS011;14654;48.898;8.308;2023-11-19T06:30:15;0.40;;;0.40;;
15633;SDS011;14654;48.898;8.308;2023-11-19T06:32:41;0.60;;;0.50;;
15633;SDS011;14654;48.898;8.308;2023-11-19T06:35:07;0.70;;;0.60;;
15633;SDS011;14654;48.898;8.308;2023-11-19T06:37:32;1.00;;;0.57;;
15633;SDS011;14654;48.898;8.308;2023-11-19T06:39:58;2.23;;;0.70;;
15633;SDS011;14654;48.898;8.308;2023-11-19T06:42:24;0.60;;;0.50;;
15633;SDS011;14654;48.898;8.308;2023-11-19T06:44:49;0.80;;;0.50;;
15633;SDS011;14654;48.898;8.308;2023-11-19T06:47:15;1.90;;;0.60;;
15633;SDS011;14654;48.898;8.308;2023-11-19T06:49:40;1.03;;;0.60;;
15633;SDS011;14654;48.898;8.308;2023-11-19T06:52:08;0.40;;;0.40;;
15633;SDS011;14654;48.898;8.308;2023-11-19T06:54:33;0.70;;;0.50;;
15633;SDS011;14654;48.898;8.308;2023-11-19T06:56:59;2.10;;;0.73;;
15633;SDS011;14654;48.898;8.308;2023-11-19T06:59:24;0.87;;;0.60;;
15633;SDS011;14654;48.898;8.308;2023-11-19T07:01:49;0.73;;;0.40;;
15633;SDS011;14654;48.898;8.308;2023-11-19T07:04:15;0.40;;;0.30;;
15633;SDS011;14654;48.898;8.308;2023-11-19T07:06:40;2.60;;;0.60;;
15633;SDS011;14654;48.898;8.308;2023-11-19T07:09:06;0.50;;;0.40;;
15633;SDS011;14654;48.898;8.308;2023-11-19T07:11:35;0.37;;;0.37;;
15633;SDS011;14654;48.898;8.308;2023-11-19T07:14:01;0.70;;;0.40;;
15633;SDS011;14654;48.898;8.308;2023-11-19T07:16:27;9.37;;;8.60;;
15633;SDS011;14654;48.898;8.308;2023-11-19T07:18:53;12.63;;;11.83;;
15633;SDS011;14654;48.898;8.308;2023-11-19T07:21:19;11.20;;;10.50;;
15633;SDS011;14654;48.898;8.308;2023-11-19T07:23:44;13.77;;;12.77;;
15633;SDS011;14654;48.898;8.308;2023-11-19T07:26:10;8.27;;;7.67;;
15633;SDS011;14654;48.898;8.308;2023-11-19T07:28:36;2.70;;;2.50;;
15633;SDS011;14654;48.898;8.308;2023-11-19T07:31:01;6.50;;;6.10;;
15633;SDS011;14654;48.898;8.308;2023-11-19T07:33:27;10.97;;;10.03;;
15633;SDS011;14654;48.898;8.308;2023-11-19T07:35:53;41.43;;;37.03;;
15633;SDS011;14654;48.898;8.308;2023-11-19T07:38:18;47.30;;;42.47;;
15633;SDS011;14654;48.898;8.308;2023-11-19T07:40:43;36.73;;;33.27;;
15633;SDS011;14654;48.898;8.308;2023-11-19T07:43:09;17.67;;;15.97;;
15633;SDS011;14654;48.898;8.308;2023-11-19T07:45:34;19.30;;;17.37;;
15633;SDS011;14654;48.898;8.308;2023-11-19T07:47:59;28.37;;;25.57;;
15633;SDS011;14654;48.898;8.308;2023-11-19T07:50:26;24.17;;;21.77;;
15633;SDS011;14654;48.898;8.308;2023-11-19T07:52:51;19.20;;;17.27;;
15633;SDS011;14654;48.898;8.308;2023-11-19T07:55:17;14.47;;;13.17;;
15633;SDS011;14654;48.898;8.308;2023-11-19T07:57:42;7.07;;;6.47;;
15633;SDS011;14654;48.898;8.308;2023-11-19T08:00:07;14.17;;;13.03;;
15633;SDS011;14654;48.898;8.308;2023-11-19T08:02:37;8.30;;;7.70;;
15633;SDS011;14654;48.898;8.308;2023-11-19T08:05:02;8.47;;;7.87;;
15633;SDS011;14654;48.898;8.308;2023-11-19T08:07:28;5.60;;;5.20;;
15633;SDS011;14654;48.898;8.308;2023-11-19T08:09:53;4.90;;;4.60;;
15633;SDS011;14654;48.898;8.308;2023-11-19T08:12:19;5.83;;;5.43;;
15633;SDS011;14654;48.898;8.308;2023-11-19T08:14:44;11.73;;;10.93;;
15633;SDS011;14654;48.898;8.308;2023-11-19T08:17:09;6.37;;;5.90;;
15633;SDS011;14654;48.898;8.308;2023-11-19T08:19:35;9.07;;;8.37;;
15633;SDS011;14654;48.898;8.308;2023-11-19T08:22:00;5.63;;;5.13;;
15633;SDS011;14654;48.898;8.308;2023-11-19T08:24:26;9.30;;;8.40;;
15633;SDS011;14654;48.898;8.308;2023-11-19T08:26:51;9.30;;;8.60;;
15633;SDS011;14654;48.898;8.308;2023-11-19T08:29:16;14.80;;;13.70;;
15633;SDS011;14654;48.898;8.308;2023-11-19T08:31:42;7.80;;;7.20;;
15633;SDS011;14654;48.898;8.308;2023-11-19T08:34:07;4.27;;;3.97;;
15633;SDS011;14654;48.898;8.308;2023-11-19T08:36:34;2.63;;;2.40;;
15633;SDS011;14654;48.898;8.308;2023-11-19T08:38:59;3.00;;;2.67;;
15633;SDS011;14654;48.898;8.308;2023-11-19T08:41:25;2.03;;;1.93;;
15633;SDS011;14654;48.898;8.308;2023-11-19T08:43:50;2.33;;;1.30;;
15633;SDS011;14654;48.898;8.308;2023-11-19T08:46:16;1.53;;;1.33;;
15633;SDS011;14654;48.898;8.308;2023-11-19T08:48:42;1.47;;;1.23;;
15633;SDS011;14654;48.898;8.308;2023-11-19T08:51:07;2.10;;;1.57;;
15633;SDS011;14654;48.898;8.308;2023-11-19T08:53:33;1.93;;;1.77;;
15633;SDS011;14654;48.898;8.308;2023-11-19T08:55:58;2.33;;;2.00;;
15633;SDS011;14654;48.898;8.308;2023-11-19T08:58:23;2.50;;;2.30;;
15633;SDS011;14654;48.898;8.308;2023-11-19T09:00:49;2.63;;;2.00;;
15633;SDS011;14654;48.898;8.308;2023-11-19T09:03:14;2.30;;;1.70;;
15633;SDS011;14654;48.898;8.308;2023-11-19T09:05:39;1.63;;;1.50;;
15633;SDS011;14654;48.898;8.308;2023-11-19T09:08:06;1.43;;;1.33;;
15633;SDS011;14654;48.898;8.308;2023-11-19T09:10:31;1.40;;;1.20;;
15633;SDS011;14654;48.898;8.308;2023-11-19T09:12:57;1.70;;;1.00;;
15633;SDS011;14654;48.898;8.308;2023-11-19T09:15:22;1.83;;;1.10;;
15633;SDS011;14654;48.898;8.308;2023-11-19T09:17:47;1.37;;;1.00;;
15633;SDS011;14654;48.898;8.308;2023-11-19T09:20:13;4.97;;;4.57;;
15633;SDS011;14654;48.898;8.308;2023-11-19T09:22:40;3.80;;;3.50;;
15633;SDS011;14654;48.898;8.308;2023-11-19T09:25:08;11.33;;;10.17;;
15633;SDS011;14654;48.898;8.308;2023-11-19T09:27:34;11.73;;;8.60;;
15633;SDS011;14654;48.898;8.308;2023-11-19T09:29:59;9.97;;;7.30;;
15633;SDS011;14654;48.898;8.308;2023-11-19T09:32:25;4.20;;;3.80;;
15633;SDS011;14654;48.898;8.308;2023-11-19T09:34:50;4.13;;;3.73;;
15633;SDS011;14654;48.898;8.308;2023-11-19T09:37:16;2.10;;;1.90;;
15633;SDS011;14654;48.898;8.308;2023-11-19T09:39:41;1.23;;;1.10;;
15633;SDS011;14654;48.898;8.308;2023-11-19T09:42:09;1.33;;;1.20;;
15633;SDS011;14654;48.898;8.308;2023-11-19T09:44:34;1.37;;;0.90;;
15633;SDS011;14654;48.898;8.308;2023-11-19T09:47:02;1.33;;;1.03;;
15633;SDS011;14654;48.898;8.308;2023-11-19T09:49:29;2.00;;;0.80;;
15633;SDS011;14654;48.898;8.308;2023-11-19T09:51:55;1.27;;;0.90;;
15633;SDS011;14654;48.898;8.308;2023-11-19T09:54:20;1.50;;;1.00;;
15633;SDS011;14654;48.898;8.308;2023-11-19T09:56:46;1.40;;;0.70;;
15633;SDS011;14654;48.898;8.308;2023-11-19T09:59:12;0.63;;;0.63;;
15633;SDS011;14654;48.898;8.308;2023-11-19T10:01:38;0.80;;;0.70;;
15633;SDS011;14654;48.898;8.308;2023-11-19T10:04:05;1.43;;;0.80;;
15633;SDS011;14654;48.898;8.308;2023-11-19T10:06:32;1.53;;;1.07;;
15633;SDS011;14654;48.898;8.308;2023-11-19T10:08:57;1.90;;;0.97;;
15633;SDS011;14654;48.898;8.308;2023-11-19T10:11:22;0.80;;;0.80;;
15633;SDS011;14654;48.898;8.308;2023-11-19T10:13:48;1.30;;;0.80;;
15633;SDS011;14654;48.898;8.308;2023-11-19T10:16:14;1.17;;;0.97;;
15633;SDS011;14654;48.898;8.308;2023-11-19T10:18:46;1.13;;;0.80;;
15633;SDS011;14654;48.898;8.308;2023-11-19T10:21:15;0.83;;;0.80;;
15633;SDS011;14654;48.898;8.308;2023-11-19T10:23:51;1.13;;;0.80;;
15633;SDS011;14654;48.898;8.308;2023-11-19T10:26:19;0.93;;;0.90;;
15633;SDS011;14654;48.898;8.308;2023-11-19T10:28:45;1.10;;;1.00;;
15633;SDS011;14654;48.898;8.308;2023-11-19T10:31:15;1.30;;;0.97;;
15633;SDS011;14654;48.898;8.308;2023-11-19T10:33:42;1.00;;;0.87;;
15633;SDS011;14654;48.898;8.308;2023-11-19T10:36:10;1.20;;;0.70;;
15633;SDS011;14654;48.898;8.308;2023-11-19T10:38:37;0.90;;;0.77;;
15633;SDS011;14654;48.898;8.308;2023-11-19T10:41:03;1.40;;;1.00;;
15633;SDS011;14654;48.898;8.308;2023-11-19T10:43:30;1.07;;;0.97;;
15633;SDS011;14654;48.898;8.308;2023-11-19T10:46:08;0.93;;;0.87;;
15633;SDS011;14654;48.898;8.308;2023-11-19T10:48:38;1.40;;;1.10;;
15633;SDS011;14654;48.898;8.308;2023-11-19T10:51:04;1.13;;;1.00;;
15633;SDS011;14654;48.898;8.308;2023-11-19T10:53:33;1.30;;;1.20;;
15633;SDS011;14654;48.898;8.308;2023-11-19T10:56:04;1.20;;;1.10;;
15633;SDS011;14654;48.898;8.308;2023-11-19T10:58:33;1.40;;;1.30;;
15633;SDS011;14654;48.898;8.308;2023-11-19T11:01:02;1.67;;;1.40;;
15633;SDS011;14654;48.898;8.308;2023-11-19T11:03:40;9.67;;;7.90;;
15633;SDS011;14654;48.898;8.308;2023-11-19T11:06:08;5.60;;;5.10;;
15633;SDS011;14654;48.898;8.308;2023-11-19T11:08:35;3.70;;;3.40;;
15633;SDS011;14654;48.898;8.308;2023-11-19T11:11:02;2.73;;;2.40;;
15633;SDS011;14654;48.898;8.308;2023-11-19T11:13:29;2.50;;;2.30;;
15633;SDS011;14654;48.898;8.308;2023-11-19T11:15:56;5.23;;;4.83;;
15633;SDS011;14654;48.898;8.308;2023-11-19T11:18:25;5.40;;;4.90;;
15633;SDS011;14654;48.898;8.308;2023-11-19T11:29:46;4.70;;;4.30;;
15633;SDS011;14654;48.898;8.308;2023-11-19T11:32:34;3.40;;;3.07;;
15633;SDS011;14654;48.898;8.308;2023-11-19T11:38:23;2.00;;;1.80;;
15633;SDS011;14654;48.898;8.308;2023-11-19T11:43:47;2.63;;;1.70;;
15633;SDS011;14654;48.898;8.308;2023-11-19T11:54:14;2.43;;;2.03;;
15633;SDS011;14654;48.898;8.308;2023-11-19T11:59:48;2.40;;;2.20;;
15633;SDS011;14654;48.898;8.308;2023-11-19T12:02:15;3.83;;;2.50;;
15633;SDS011;14654;48.898;8.308;2023-11-19T12:04:46;3.90;;;3.60;;
15633;SDS011;14654;48.898;8.308;2023-11-19T12:07:31;4.73;;;4.33;;
15633;SDS011;14654;48.898;8.308;2023-11-19T12:10:08;5.17;;;4.87;;
15633;SDS011;14654;48.898;8.308;2023-11-19T12:12:36;2.77;;;2.57;;
15633;SDS011;14654;48.898;8.308;2023-11-19T12:15:05;3.40;;;3.10;;
15633;SDS011;14654;48.898;8.308;2023-11-19T12:20:03;2.03;;;1.83;;
15633;SDS011;14654;48.898;8.308;2023-11-19T12:22:39;2.27;;;2.07;;
15633;SDS011;14654;48.898;8.308;2023-11-19T12:25:06;2.93;;;2.73;;
15633;SDS011;14654;48.898;8.308;2023-11-19T12:27:33;1.50;;;1.30;;
15633;SDS011;14654;48.898;8.308;2023-11-19T12:29:59;1.80;;;1.33;;
15633;SDS011;14654;48.898;8.308;2023-11-19T12:32:25;2.10;;;1.50;;
15633;SDS011;14654;48.898;8.308;2023-11-19T12:34:50;2.70;;;1.53;;
15633;SDS011;14654;48.898;8.308;2023-11-19T12:37:16;2.67;;;2.00;;
15633;SDS011;14654;48.898;8.308;2023-11-19T12:39:42;2.87;;;2.13;;
15633;SDS011;14654;48.898;8.308;2023-11-19T12:42:08;3.40;;;2.20;;
15633;SDS011;14654;48.898;8.308;2023-11-19T12:44:33;3.13;;;1.83;;
15633;SDS011;14654;48.898;8.308;2023-11-19T12:49:25;1.20;;;1.10;;
15633;SDS011;14654;48.898;8.308;2023-11-19T12:51:50;3.00;;;1.60;;
15633;SDS011;14654;48.898;8.308;2023-11-19T12:54:16;1.93;;;1.50;;
15633;SDS011;14654;48.898;8.308;2023-11-19T12:56:51;3.33;;;1.33;;
15633;SDS011;14654;48.898;8.308;2023-11-19T12:59:19;4.27;;;2.03;;
15633;SDS011;14654;48.898;8.308;2023-11-19T13:01:54;4.03;;;2.83;;
15633;SDS011;14654;48.898;8.308;2023-11-19T13:04:20;5.90;;;3.63;;
15633;SDS011;14654;48.898;8.308;2023-11-19T13:06:45;7.63;;;4.93;;
15633;SDS011;14654;48.898;8.308;2023-11-19T13:09:21;3.93;;;3.53;;
15633;SDS011;14654;48.898;8.308;2023-11-19T13:11:56;5.00;;;4.50;;
15633;SDS011;14654;48.898;8.308;2023-11-19T13:14:21;4.57;;;4.00;;
15633;SDS011;14654;48.898;8.308;2023-11-19T13:16:48;6.87;;;4.37;;
15633;SDS011;14654;48.898;8.308;2023-11-19T13:19:17;3.90;;;3.50;;
15633;SDS011;14654;48.898;8.308;2023-11-19T13:21:43;5.50;;;3.80;;
15633;SDS011;14654;48.898;8.308;2023-11-19T13:24:11;2.23;;;2.00;;
15633;SDS011;14654;48.898;8.308;2023-11-19T13:26:37;2.47;;;1.40;;
15633;SDS011;14654;48.898;8.308;2023-11-19T13:29:03;2.33;;;1.30;;
15633;SDS011;14654;48.898;8.308;2023-11-19T13:31:29;1.60;;;1.00;;
15633;SDS011;14654;48.898;8.308;2023-11-19T13:33:54;1.23;;;1.13;;
15633;SDS011;14654;48.898;8.308;2023-11-19T13:36:20;3.03;;;1.33;;
15633;SDS011;14654;48.898;8.308;2023-11-19T13:38:45;3.50;;;1.23;;
15633;SDS011;14654;48.898;8.308;2023-11-19T13:41:11;1.27;;;0.90;;
15633;SDS011;14654;48.898;8.308;2023-11-19T13:43:38;2.43;;;1.20;;
15633;SDS011;14654;48.898;8.308;2023-11-19T13:46:04;1.73;;;1.10;;
15633;SDS011;14654;48.898;8.308;2023-11-19T13:48:29;2.10;;;1.20;;
15633;SDS011;14654;48.898;8.308;2023-11-19T13:50:55;1.83;;;1.43;;
15633;SDS011;14654;48.898;8.308;2023-11-19T13:53:21;1.50;;;1.33;;
15633;SDS011;14654;48.898;8.308;2023-11-19T13:55:47;1.37;;;0.90;;
15633;SDS011;14654;48.898;8.308;2023-11-19T13:58:15;1.53;;;1.30;;
15633;SDS011;14654;48.898;8.308;2023-11-19T14:00:41;1.30;;;1.20;;
15633;SDS011;14654;48.898;8.308;2023-11-19T14:03:07;1.43;;;1.10;;
15633;SDS011;14654;48.898;8.308;2023-11-19T14:05:32;1.80;;;1.20;;
15633;SDS011;14654;48.898;8.308;2023-11-19T14:07:57;1.97;;;1.30;;
15633;SDS011;14654;48.898;8.308;2023-11-19T14:10:23;1.30;;;1.10;;
15633;SDS011;14654;48.898;8.308;2023-11-19T14:12:48;1.50;;;1.10;;
15633;SDS011;14654;48.898;8.308;2023-11-19T14:15:15;3.03;;;1.27;;
15633;SDS011;14654;48.898;8.308;2023-11-19T14:17:42;2.50;;;1.47;;
15633;SDS011;14654;48.898;8.308;2023-11-19T14:20:08;1.37;;;1.10;;
15633;SDS011;14654;48.898;8.308;2023-11-19T14:22:44;2.80;;;1.40;;
15633;SDS011;14654;48.898;8.308;2023-11-19T14:25:14;1.77;;;1.20;;
15633;SDS011;14654;48.898;8.308;2023-11-19T14:27:40;2.60;;;2.20;;
15633;SDS011;14654;48.898;8.308;2023-11-19T14:30:07;4.50;;;2.43;;
15633;SDS011;14654;48.898;8.308;2023-11-19T14:32:37;5.27;;;1.70;;
15633;SDS011;14654;48.898;8.308;2023-11-19T14:35:04;2.20;;;1.83;;
15633;SDS011;14654;48.898;8.308;2023-11-19T14:37:30;2.33;;;1.50;;
15633;SDS011;14654;48.898;8.308;2023-11-19T14:39:58;1.80;;;1.10;;
15633;SDS011;14654;48.898;8.308;2023-11-19T14:42:25;1.20;;;0.80;;
15633;SDS011;14654;48.898;8.308;2023-11-19T14:44:51;2.70;;;1.00;;
15633;SDS011;14654;48.898;8.308;2023-11-19T14:47:20;1.57;;;1.00;;
15633;SDS011;14654;48.898;8.308;2023-11-19T14:49:46;1.47;;;0.87;;
15633;SDS011;14654;48.898;8.308;2023-11-19T14:52:11;2.07;;;0.90;;
15633;SDS011;14654;48.898;8.308;2023-11-19T14:54:37;0.70;;;0.60;;
15633;SDS011;14654;48.898;8.308;2023-11-19T14:57:03;1.43;;;1.10;;
15633;SDS011;14654;48.898;8.308;2023-11-19T14:59:29;1.10;;;0.90;;
15633;SDS011;14654;48.898;8.308;2023-11-19T15:01:54;1.30;;;0.73;;
15633;SDS011;14654;48.898;8.308;2023-11-19T15:04:20;1.50;;;1.00;;
15633;SDS011;14654;48.898;8.308;2023-11-19T15:06:45;2.30;;;0.87;;
15633;SDS011;14654;48.898;8.308;2023-11-19T15:09:11;1.53;;;0.80;;
15633;SDS011;14654;48.898;8.308;2023-11-19T15:11:43;1.13;;;0.80;;
15633;SDS011;14654;48.898;8.308;2023-11-19T15:14:08;1.43;;;0.80;;
15633;SDS011;14654;48.898;8.308;2023-11-19T15:16:34;1.80;;;0.90;;